createdAt,value
2022-08-04T00:00:44.474Z,21.06
2022-08-04T00:01:44.627Z,21.09
2022-08-04T00:02:44.710Z,21.08
2022-08-04T00:03:44.435Z,21.06
2022-08-04T00:04:44.427Z,21.05
2022-08-04T00:05:44.413Z,21.03
2022-08-04T00:06:44.402Z,21.00
2022-08-04T00:07:45.362Z,20.98
2022-08-04T00:08:44.387Z,21.00
2022-08-04T00:09:44.375Z,20.94
2022-08-04T00:10:44.361Z,21.00
2022-08-04T00:11:44.346Z,20.93
2022-08-04T00:12:44.335Z,20.88
2022-08-04T00:13:58.077Z,20.82
2022-08-04T00:14:44.315Z,20.81
2022-08-04T00:15:44.301Z,20.81
2022-08-04T00:16:44.292Z,20.76
2022-08-04T00:17:44.281Z,20.75
2022-08-04T00:18:44.269Z,20.69
2022-08-04T00:19:44.261Z,20.63
2022-08-04T00:20:44.246Z,20.64
2022-08-04T00:21:44.235Z,20.63
2022-08-04T00:22:44.226Z,20.68
2022-08-04T00:24:10.398Z,20.58
2022-08-04T00:24:45.230Z,20.60
2022-08-04T00:25:44.190Z,20.54
2022-08-04T00:26:44.179Z,20.56
2022-08-04T00:27:44.172Z,20.58
2022-08-04T00:28:44.157Z,20.56
2022-08-04T00:29:44.152Z,20.53
2022-08-04T00:30:44.134Z,20.48
2022-08-04T00:31:56.650Z,20.46
2022-08-04T00:32:44.113Z,20.46
2022-08-04T00:33:44.102Z,20.51
2022-08-04T00:34:44.090Z,20.51
2022-08-04T00:35:44.078Z,20.44
2022-08-04T00:36:44.069Z,20.41
2022-08-04T00:37:44.055Z,20.37
2022-08-04T00:38:44.047Z,20.34
2022-08-04T00:39:44.036Z,20.34
2022-08-04T00:40:44.024Z,20.30
2022-08-04T00:41:56.683Z,20.34
2022-08-04T00:42:58.708Z,20.38
2022-08-04T00:43:43.988Z,20.35
2022-08-04T00:44:43.979Z,20.27
2022-08-04T00:46:15.387Z,20.31
2022-08-04T00:46:43.958Z,20.26
2022-08-04T00:47:43.944Z,20.26
2022-08-04T00:48:43.934Z,20.23
2022-08-04T00:49:43.923Z,20.33
2022-08-04T00:50:43.911Z,20.27
2022-08-04T00:51:43.899Z,20.20
2022-08-04T00:52:43.890Z,20.25
2022-08-04T00:53:49.946Z,20.25
2022-08-04T00:54:43.868Z,20.20
2022-08-04T00:55:43.857Z,20.22
2022-08-04T00:56:43.846Z,20.19
2022-08-04T00:57:43.832Z,20.20
2022-08-04T00:58:43.825Z,20.10
2022-08-04T00:59:43.820Z,20.10
2022-08-04T01:00:43.857Z,20.13
2022-08-04T01:01:43.998Z,20.13
2022-08-04T01:02:43.978Z,20.19
2022-08-04T01:03:43.899Z,20.13
2022-08-04T01:04:43.912Z,20.12
2022-08-04T01:05:43.903Z,20.08
2022-08-04T01:06:43.915Z,20.04
2022-08-04T01:07:43.724Z,20.04
2022-08-04T01:08:43.713Z,20.00
2022-08-04T01:09:43.701Z,20.01
2022-08-04T01:10:43.691Z,19.98
2022-08-04T01:11:57.605Z,19.95
2022-08-04T01:12:44.704Z,19.95
2022-08-04T01:13:43.659Z,19.97
2022-08-04T01:14:43.650Z,19.97
2022-08-04T01:16:00.208Z,19.86
2022-08-04T01:16:44.653Z,19.78
2022-08-04T01:17:43.623Z,19.78
2022-08-04T01:18:43.607Z,19.78
2022-08-04T01:19:43.593Z,19.82
2022-08-04T01:20:43.583Z,19.85
2022-08-04T01:21:43.570Z,19.86
2022-08-04T01:22:43.563Z,19.85
2022-08-04T01:23:43.549Z,19.86
2022-08-04T01:24:43.550Z,19.78
2022-08-04T01:25:43.528Z,19.71
2022-08-04T01:26:57.275Z,19.72
2022-08-04T01:27:44.532Z,19.76
2022-08-04T01:28:43.496Z,19.72
2022-08-04T01:29:46.808Z,19.75
2022-08-04T01:30:43.473Z,19.72
2022-08-04T01:31:43.461Z,19.70
2022-08-04T01:32:43.450Z,19.72
2022-08-04T01:34:03.434Z,19.71
2022-08-04T01:34:44.559Z,19.72
2022-08-04T01:35:47.794Z,19.65
2022-08-04T01:36:43.406Z,19.70
2022-08-04T01:37:44.455Z,19.67
2022-08-04T01:38:43.385Z,19.68
2022-08-04T01:39:43.386Z,19.61
2022-08-04T01:40:43.364Z,19.58
2022-08-04T01:41:43.350Z,19.49
2022-08-04T01:42:44.366Z,19.52
2022-08-04T01:43:43.328Z,19.57
2022-08-04T01:44:43.321Z,19.62
2022-08-04T01:45:43.304Z,19.57
2022-08-04T01:46:43.295Z,19.60
2022-08-04T01:47:43.284Z,19.64
2022-08-04T01:48:43.274Z,19.62
2022-08-04T01:49:43.261Z,19.70
2022-08-04T01:50:43.251Z,19.64
2022-08-04T01:51:43.239Z,19.61
2022-08-04T01:52:45.540Z,19.64
2022-08-04T01:53:43.216Z,19.70
2022-08-04T01:54:43.209Z,19.67
2022-08-04T01:55:55.013Z,19.68
2022-08-04T01:56:43.187Z,19.68
2022-08-04T01:57:43.175Z,19.65
2022-08-04T01:58:43.164Z,19.65
2022-08-04T01:59:43.156Z,19.70
2022-08-04T02:00:43.141Z,19.71
2022-08-04T02:01:43.317Z,19.76
2022-08-04T02:02:43.212Z,19.85
2022-08-04T02:04:21.128Z,19.79
2022-08-04T02:04:44.122Z,19.76
2022-08-04T02:06:03.930Z,19.76
2022-08-04T02:06:44.098Z,19.75
2022-08-04T02:07:43.063Z,19.65
2022-08-04T02:08:43.053Z,19.58
2022-08-04T02:09:55.104Z,19.67
2022-08-04T02:10:43.028Z,19.65
2022-08-04T02:11:43.019Z,19.67
2022-08-04T02:12:43.007Z,19.68
2022-08-04T02:13:42.997Z,19.61
2022-08-04T02:14:43.001Z,19.65
2022-08-04T02:15:42.978Z,19.60
2022-08-04T02:16:42.962Z,19.61
2022-08-04T02:17:42.951Z,19.60
2022-08-04T02:18:42.945Z,19.58
2022-08-04T02:19:42.929Z,19.60
2022-08-04T02:20:42.919Z,19.49
2022-08-04T02:21:43.125Z,19.46
2022-08-04T02:22:42.895Z,19.46
2022-08-04T02:23:42.885Z,19.35
2022-08-04T02:24:42.872Z,19.39
2022-08-04T02:25:42.861Z,19.38
2022-08-04T02:26:42.848Z,19.34
2022-08-04T02:27:59.270Z,19.28
2022-08-04T02:28:42.826Z,19.35
2022-08-04T02:29:42.818Z,19.38
2022-08-04T02:30:42.802Z,19.42
2022-08-04T02:31:42.793Z,19.30
2022-08-04T02:32:42.778Z,19.31
2022-08-04T02:33:42.770Z,19.32
2022-08-04T02:34:42.755Z,19.28
2022-08-04T02:35:42.746Z,19.30
2022-08-04T02:36:42.733Z,19.27
2022-08-04T02:37:42.722Z,19.34
2022-08-04T02:38:42.709Z,19.32
2022-08-04T02:39:48.794Z,19.27
2022-08-04T02:40:42.686Z,19.34
2022-08-04T02:41:42.679Z,19.24
2022-08-04T02:42:42.663Z,19.27
2022-08-04T02:43:51.787Z,19.24
2022-08-04T02:44:42.641Z,19.27
2022-08-04T02:45:42.634Z,19.21
2022-08-04T02:46:42.621Z,19.17
2022-08-04T02:48:25.184Z,19.20
2022-08-04T02:48:43.721Z,19.25
2022-08-04T02:49:42.590Z,19.28
2022-08-04T02:50:42.575Z,19.24
2022-08-04T02:51:42.563Z,19.15
2022-08-04T02:52:42.547Z,19.13
2022-08-04T02:53:42.536Z,19.23
2022-08-04T02:54:42.525Z,19.23
2022-08-04T02:55:51.092Z,19.21
2022-08-04T02:56:42.504Z,19.17
2022-08-04T02:57:42.491Z,19.15
2022-08-04T02:58:42.478Z,19.12
2022-08-04T02:59:42.469Z,19.12
2022-08-04T03:00:42.494Z,19.12
2022-08-04T03:01:56.806Z,19.06
2022-08-04T03:02:42.432Z,19.07
2022-08-04T03:03:42.420Z,19.07
2022-08-04T03:04:42.407Z,19.06
2022-08-04T03:05:54.181Z,19.12
2022-08-04T03:06:42.386Z,19.23
2022-08-04T03:07:42.377Z,19.28
2022-08-04T03:08:42.361Z,19.25
2022-08-04T03:09:42.362Z,19.21
2022-08-04T03:10:42.340Z,19.23
2022-08-04T03:11:42.329Z,19.17
2022-08-04T03:12:42.315Z,19.12
2022-08-04T03:13:42.304Z,19.09
2022-08-04T03:14:42.319Z,19.09
2022-08-04T03:15:42.282Z,19.10
2022-08-04T03:16:42.270Z,19.10
2022-08-04T03:17:52.954Z,18.97
2022-08-04T03:18:42.248Z,19.07
2022-08-04T03:19:42.242Z,18.99
2022-08-04T03:20:42.221Z,18.96
2022-08-04T03:21:42.211Z,19.02
2022-08-04T03:23:06.213Z,19.05
2022-08-04T03:23:43.216Z,19.02
2022-08-04T03:24:42.175Z,19.06
2022-08-04T03:25:54.405Z,19.07
2022-08-04T03:26:43.181Z,19.06
2022-08-04T03:27:42.142Z,19.06
2022-08-04T03:28:42.131Z,19.07
2022-08-04T03:29:42.121Z,19.05
2022-08-04T03:30:42.105Z,18.99
2022-08-04T03:31:42.095Z,19.01
2022-08-04T03:32:42.082Z,18.97
2022-08-04T03:33:42.074Z,18.97
2022-08-04T03:34:42.059Z,18.96
2022-08-04T03:35:42.052Z,18.94
2022-08-04T03:36:42.035Z,18.94
2022-08-04T03:37:42.029Z,18.84
2022-08-04T03:38:42.012Z,18.87
2022-08-04T03:39:42.103Z,18.90
2022-08-04T03:40:41.989Z,18.86
2022-08-04T03:41:57.497Z,18.87
2022-08-04T03:42:41.967Z,18.86
2022-08-04T03:43:58.917Z,18.93
2022-08-04T03:44:42.974Z,18.84
2022-08-04T03:45:41.940Z,18.78
2022-08-04T03:46:41.919Z,18.78
2022-08-04T03:47:42.338Z,18.79
2022-08-04T03:48:41.897Z,18.89
2022-08-04T03:49:41.886Z,18.82
2022-08-04T03:50:41.877Z,18.78
2022-08-04T03:51:41.865Z,18.78
2022-08-04T03:52:41.851Z,18.82
2022-08-04T03:53:41.843Z,18.78
2022-08-04T03:54:41.829Z,18.79
2022-08-04T03:55:41.820Z,18.79
2022-08-04T03:56:41.806Z,18.82
2022-08-04T03:57:41.800Z,18.75
2022-08-04T03:58:41.785Z,18.79
2022-08-04T03:59:41.775Z,18.79
2022-08-04T04:00:41.763Z,18.82
2022-08-04T04:02:02.637Z,18.79
2022-08-04T04:02:42.853Z,18.89
2022-08-04T04:03:41.731Z,18.93
2022-08-04T04:04:41.722Z,18.87
2022-08-04T04:06:00.133Z,18.83
2022-08-04T04:06:43.390Z,18.86
2022-08-04T04:07:42.711Z,18.89
2022-08-04T04:08:41.671Z,18.84
2022-08-04T04:09:57.524Z,18.83
2022-08-04T04:10:41.653Z,18.86
2022-08-04T04:11:54.456Z,18.94
2022-08-04T04:12:41.630Z,18.90
2022-08-04T04:13:41.616Z,18.97
2022-08-04T04:14:41.603Z,18.89
2022-08-04T04:15:41.592Z,18.96
2022-08-04T04:16:41.580Z,18.97
2022-08-04T04:17:41.571Z,19.02
2022-08-04T04:18:41.556Z,19.01
2022-08-04T04:19:41.545Z,19.09
2022-08-04T04:20:41.532Z,19.10
2022-08-04T04:21:41.524Z,19.15
2022-08-04T04:22:41.521Z,19.23
2022-08-04T04:23:41.507Z,19.20
2022-08-04T04:24:41.491Z,19.21
2022-08-04T04:25:41.478Z,19.27
2022-08-04T04:26:41.485Z,19.30
2022-08-04T04:27:41.453Z,19.30
2022-08-04T04:28:46.123Z,19.34
2022-08-04T04:29:41.433Z,19.40
2022-08-04T04:30:41.418Z,19.42
2022-08-04T04:31:41.409Z,19.43
2022-08-04T04:32:41.397Z,19.46
2022-08-04T04:33:41.388Z,19.58
2022-08-04T04:34:45.856Z,19.60
2022-08-04T04:35:41.446Z,19.60
2022-08-04T04:36:41.357Z,19.67
2022-08-04T04:37:48.907Z,19.70
2022-08-04T04:38:41.330Z,19.68
2022-08-04T04:39:41.401Z,19.78
2022-08-04T04:40:41.311Z,19.83
2022-08-04T04:41:41.301Z,19.86
2022-08-04T04:42:41.284Z,19.92
2022-08-04T04:43:51.873Z,19.97
2022-08-04T04:44:41.265Z,20.00
2022-08-04T04:45:41.256Z,20.07
2022-08-04T04:46:41.299Z,20.19
2022-08-04T04:48:01.705Z,20.22
2022-08-04T04:48:41.226Z,20.26
2022-08-04T04:49:41.215Z,20.38
2022-08-04T04:50:41.198Z,20.46
2022-08-04T04:51:41.191Z,20.48
2022-08-04T04:52:41.173Z,20.48
2022-08-04T04:53:41.169Z,20.56
2022-08-04T04:54:41.159Z,20.64
2022-08-04T04:55:43.965Z,20.69
2022-08-04T04:56:41.133Z,20.71
2022-08-04T04:57:52.617Z,20.79
2022-08-04T04:58:42.139Z,20.81
2022-08-04T04:59:41.117Z,20.82
2022-08-04T05:00:41.087Z,20.87
2022-08-04T05:01:41.078Z,20.94
2022-08-04T05:02:41.066Z,20.98
2022-08-04T05:03:41.057Z,21.09
2022-08-04T05:04:41.040Z,21.12
2022-08-04T05:05:41.031Z,21.15
2022-08-04T05:06:41.021Z,21.28
2022-08-04T05:07:41.009Z,21.22
2022-08-04T05:08:41.084Z,21.16
2022-08-04T05:09:40.991Z,21.13
2022-08-04T05:10:40.977Z,21.15
2022-08-04T05:11:40.966Z,21.09
2022-08-04T05:14:30.882Z,21.12
2022-08-04T05:14:35.371Z,21.16
2022-08-04T05:14:41.735Z,21.19
2022-08-04T05:15:41.518Z,21.15
2022-08-04T05:16:40.910Z,21.16
2022-08-04T05:17:40.905Z,21.27
2022-08-04T05:18:40.904Z,21.24
2022-08-04T05:19:40.901Z,21.28
2022-08-04T05:20:40.871Z,21.31
2022-08-04T05:21:40.857Z,21.51
2022-08-04T05:22:40.973Z,21.77
2022-08-04T05:23:40.836Z,21.94
2022-08-04T05:24:40.820Z,22.04
2022-08-04T05:25:40.813Z,21.99
2022-08-04T05:26:40.800Z,21.94
2022-08-04T05:27:40.793Z,21.89
2022-08-04T05:28:40.776Z,21.82
2022-08-04T05:29:41.111Z,21.81
2022-08-04T05:30:40.757Z,21.75
2022-08-04T05:31:40.746Z,21.71
2022-08-04T05:32:40.735Z,21.75
2022-08-04T05:33:40.731Z,21.75
2022-08-04T05:34:40.714Z,21.75
2022-08-04T05:36:16.793Z,21.82
2022-08-04T05:36:41.818Z,21.86
2022-08-04T05:37:40.681Z,21.96
2022-08-04T05:38:40.667Z,22.06
2022-08-04T05:39:40.701Z,22.11
2022-08-04T05:40:40.648Z,22.08
2022-08-04T05:41:45.300Z,22.11
2022-08-04T05:42:40.624Z,22.08
2022-08-04T05:43:40.614Z,22.04
2022-08-04T05:44:40.604Z,22.11
2022-08-04T05:45:40.590Z,22.04
2022-08-04T05:46:40.578Z,22.12
2022-08-04T05:47:40.572Z,22.06
2022-08-04T05:48:40.560Z,22.09
2022-08-04T05:49:40.546Z,22.17
2022-08-04T05:50:40.536Z,22.20
2022-08-04T05:51:40.527Z,22.21
2022-08-04T05:52:40.512Z,22.29
2022-08-04T05:53:40.503Z,22.30
2022-08-04T05:54:40.495Z,22.26
2022-08-04T05:55:57.009Z,22.31
2022-08-04T05:56:41.505Z,22.41
2022-08-04T05:57:40.460Z,22.46
2022-08-04T05:58:40.446Z,22.52
2022-08-04T05:59:40.437Z,22.61
2022-08-04T06:00:41.815Z,22.67
2022-08-04T06:01:55.098Z,22.78
2022-08-04T06:02:41.433Z,22.85
2022-08-04T06:03:40.392Z,22.93
2022-08-04T06:04:40.399Z,23.03
2022-08-04T06:05:40.373Z,23.07
2022-08-04T06:06:40.381Z,23.22
2022-08-04T06:08:12.821Z,23.34
2022-08-04T06:08:41.365Z,23.38
2022-08-04T06:09:40.325Z,23.50
2022-08-04T06:10:40.312Z,23.57
2022-08-04T06:12:02.149Z,23.59
2022-08-04T06:12:40.294Z,23.60
2022-08-04T06:13:48.959Z,23.81
2022-08-04T06:14:40.279Z,24.21
2022-08-04T06:15:40.262Z,24.52
2022-08-04T06:16:40.258Z,24.82
2022-08-04T06:19:57.460Z,24.90
2022-08-04T06:20:01.315Z,24.80
2022-08-04T06:20:03.108Z,24.90
2022-08-04T06:20:40.204Z,24.77
2022-08-04T06:21:40.193Z,24.70
2022-08-04T06:22:40.184Z,24.71
2022-08-04T06:23:53.209Z,24.83
2022-08-04T06:24:40.162Z,24.92
2022-08-04T06:25:40.151Z,24.99
2022-08-04T06:26:40.140Z,25.05
2022-08-04T06:27:40.132Z,25.05
2022-08-04T06:28:40.134Z,25.08
2022-08-04T06:29:40.104Z,24.97
2022-08-04T06:30:40.094Z,24.89
2022-08-04T06:32:30.410Z,24.79
2022-08-04T06:32:41.999Z,24.77
2022-08-04T06:33:55.054Z,24.70
2022-08-04T06:34:41.083Z,24.64
2022-08-04T06:35:40.039Z,24.74
2022-08-04T06:36:40.029Z,24.82
2022-08-04T06:37:42.780Z,24.70
2022-08-04T06:38:40.016Z,24.77
2022-08-04T06:39:40.063Z,24.84
2022-08-04T06:40:39.990Z,24.89
2022-08-04T06:42:01.893Z,24.99
2022-08-04T06:42:39.966Z,25.01
2022-08-04T06:43:42.823Z,25.05
2022-08-04T06:44:39.942Z,25.09
2022-08-04T06:45:40.026Z,25.09
2022-08-04T06:46:39.923Z,25.12
2022-08-04T06:47:39.928Z,25.19
2022-08-04T06:48:39.903Z,25.31
2022-08-04T06:51:23.476Z,25.39
2022-08-04T06:51:31.390Z,25.38
2022-08-04T06:51:49.068Z,25.44
2022-08-04T06:52:39.858Z,25.41
2022-08-04T06:53:39.844Z,25.29
2022-08-04T06:54:39.839Z,25.36
2022-08-04T06:55:39.823Z,25.41
2022-08-04T06:56:39.812Z,25.56
2022-08-04T06:57:39.809Z,25.79
2022-08-04T06:58:39.791Z,26.12
2022-08-04T06:59:39.779Z,26.47
2022-08-04T07:00:39.774Z,26.91
2022-08-04T07:01:39.828Z,27.42
2022-08-04T07:02:39.747Z,27.84
2022-08-04T07:03:39.737Z,28.18
2022-08-04T07:04:39.732Z,28.30
2022-08-04T07:05:39.716Z,28.35
2022-08-04T07:06:39.710Z,28.30
2022-08-04T07:07:57.108Z,28.46
2022-08-04T07:08:40.714Z,28.48
2022-08-04T07:09:39.683Z,28.40
2022-08-04T07:10:39.667Z,28.25
2022-08-04T07:11:44.339Z,28.28
2022-08-04T07:12:39.650Z,28.52
2022-08-04T07:13:44.601Z,28.83
2022-08-04T07:14:39.620Z,29.05
2022-08-04T07:15:39.617Z,29.25
2022-08-04T07:16:39.598Z,29.41
2022-08-04T07:17:39.614Z,29.52
2022-08-04T07:18:39.593Z,29.35
2022-08-04T07:19:39.581Z,29.27
2022-08-04T07:20:39.556Z,29.29
2022-08-04T07:21:39.544Z,29.32
2022-08-04T07:22:39.545Z,29.26
2022-08-04T07:23:39.547Z,29.17
2022-08-04T07:24:41.456Z,29.18
2022-08-04T07:26:00.239Z,29.18
2022-08-04T07:26:39.496Z,29.25
2022-08-04T07:27:48.329Z,29.52
2022-08-04T07:28:40.505Z,29.81
2022-08-04T07:29:39.460Z,30.18
2022-08-04T07:30:39.470Z,30.42
2022-08-04T07:31:39.441Z,30.64
2022-08-04T07:32:39.436Z,30.60
2022-08-04T07:33:39.419Z,30.75
2022-08-04T07:34:39.412Z,30.94
2022-08-04T07:36:04.907Z,31.16
2022-08-04T07:36:50.079Z,31.13
2022-08-04T07:37:40.407Z,31.16
2022-08-04T07:38:48.225Z,31.22
2022-08-04T07:39:48.107Z,31.23
2022-08-04T07:40:39.748Z,31.10
2022-08-04T07:41:39.571Z,30.88
2022-08-04T07:49:54.735Z,30.32
2022-08-04T07:50:29.214Z,30.30
2022-08-04T07:51:29.239Z,30.32
2022-08-04T07:52:29.223Z,30.32
2022-08-04T07:53:55.465Z,30.29
2022-08-04T07:54:30.212Z,30.28
2022-08-04T07:55:29.165Z,30.34
2022-08-04T07:56:29.153Z,30.40
2022-08-04T07:57:41.128Z,30.79
2022-08-04T07:58:30.482Z,31.01
2022-08-04T07:59:29.124Z,30.63
2022-08-04T08:00:29.102Z,30.70
2022-08-04T08:01:29.098Z,31.20
2022-08-04T08:02:29.084Z,31.72
2022-08-04T08:03:29.245Z,32.12
2022-08-04T08:04:29.071Z,32.73
2022-08-04T08:05:29.056Z,33.07
2022-08-04T08:06:32.362Z,33.00
2022-08-04T08:07:29.042Z,32.49
2022-08-04T08:08:29.023Z,32.14
2022-08-04T08:09:29.012Z,31.90
2022-08-04T08:10:29.006Z,31.68
2022-08-04T08:12:36.221Z,31.50
2022-08-04T08:12:37.367Z,31.54
2022-08-04T08:13:33.154Z,31.67
2022-08-04T08:14:28.993Z,32.03
2022-08-04T08:15:28.961Z,32.49
2022-08-04T08:16:28.943Z,32.80
2022-08-04T08:17:28.937Z,33.09
2022-08-04T08:18:28.929Z,33.24
2022-08-04T08:19:28.914Z,33.24
2022-08-04T08:20:30.203Z,33.35
2022-08-04T08:21:28.899Z,33.34
2022-08-04T08:22:28.888Z,33.38
2022-08-04T08:23:28.880Z,33.33
2022-08-04T08:24:28.864Z,33.35
2022-08-04T08:25:28.871Z,33.17
2022-08-04T08:26:28.854Z,33.06
2022-08-04T08:27:28.839Z,33.09
2022-08-04T08:28:28.831Z,33.05
2022-08-04T08:29:28.821Z,33.14
2022-08-04T08:30:31.485Z,33.28
2022-08-04T08:31:56.200Z,33.60
2022-08-04T08:32:29.831Z,33.86
2022-08-04T08:33:28.783Z,34.30
2022-08-04T08:34:29.097Z,34.42
2022-08-04T08:35:28.775Z,34.43
2022-08-04T08:36:28.762Z,34.67
2022-08-04T08:37:28.905Z,34.58
2022-08-04T08:38:28.736Z,34.72
2022-08-04T08:39:28.784Z,34.83
2022-08-04T08:40:40.768Z,35.05
2022-08-04T08:41:29.789Z,35.28
2022-08-04T08:42:28.692Z,35.24
2022-08-04T08:44:05.121Z,35.00
2022-08-04T08:44:37.460Z,35.31
2022-08-04T08:45:28.664Z,34.94
2022-08-04T08:46:48.367Z,35.06
2022-08-04T08:47:28.676Z,35.17
2022-08-04T08:48:28.643Z,35.03
2022-08-04T08:50:03.061Z,35.21
2022-08-04T08:50:29.649Z,35.43
2022-08-04T08:51:28.605Z,35.73
2022-08-04T08:52:57.568Z,35.96
2022-08-04T08:53:28.587Z,35.89
2022-08-04T08:54:28.581Z,36.22
2022-08-04T08:55:28.579Z,36.44
2022-08-04T08:56:31.415Z,36.83
2022-08-04T08:57:28.546Z,36.52
2022-08-04T08:58:28.541Z,36.75
2022-08-04T08:59:28.570Z,36.57
2022-08-04T09:00:31.998Z,36.55
2022-08-04T09:01:28.569Z,36.50
2022-08-04T09:02:28.505Z,35.77
2022-08-04T09:03:28.491Z,35.96
2022-08-04T09:04:31.964Z,36.50
2022-08-04T09:05:28.469Z,37.23
2022-08-04T09:06:28.464Z,36.86
2022-08-04T09:07:28.451Z,37.12
2022-08-04T09:08:28.447Z,37.08
2022-08-04T09:09:28.432Z,36.59
2022-08-04T09:10:33.054Z,36.87
2022-08-04T09:11:28.414Z,37.42
2022-08-04T09:12:28.411Z,37.80
2022-08-04T09:13:28.426Z,37.45
2022-08-04T09:14:28.389Z,37.18
2022-08-04T09:15:28.377Z,36.91
2022-08-04T09:16:28.373Z,36.79
2022-08-04T09:17:28.366Z,36.83
2022-08-04T09:18:28.349Z,37.08
2022-08-04T09:19:38.514Z,37.58
2022-08-04T09:20:29.361Z,38.15
2022-08-04T09:21:28.329Z,38.26
2022-08-04T09:22:28.317Z,38.02
2022-08-04T09:23:28.321Z,38.06
2022-08-04T09:24:35.275Z,38.06
2022-08-04T09:25:29.320Z,37.82
2022-08-04T09:26:28.285Z,37.31
2022-08-04T09:27:28.276Z,37.27
2022-08-04T09:28:52.143Z,36.89
2022-08-04T09:29:29.294Z,37.34
2022-08-04T09:30:28.247Z,37.31
2022-08-04T09:31:28.236Z,37.40
2022-08-04T09:32:28.229Z,37.50
2022-08-04T09:33:45.319Z,37.24
2022-08-04T09:34:29.248Z,36.69
2022-08-04T09:35:28.207Z,36.28
2022-08-04T09:36:28.292Z,35.95
2022-08-04T09:37:28.203Z,35.98
2022-08-04T09:38:28.173Z,36.06
2022-08-04T09:39:28.358Z,35.62
2022-08-04T09:40:31.614Z,35.71
2022-08-04T09:41:48.084Z,36.30
2022-08-04T09:42:30.370Z,37.04
2022-08-04T09:43:28.122Z,37.49
2022-08-04T09:44:52.682Z,38.02
2022-08-04T09:45:36.651Z,37.88
2022-08-04T09:46:29.124Z,38.10
2022-08-04T09:47:39.757Z,38.50
2022-08-04T09:48:29.170Z,38.93
2022-08-04T09:49:28.070Z,39.16
2022-08-04T09:50:28.061Z,39.32
2022-08-04T09:51:57.495Z,39.57
2022-08-04T09:52:29.075Z,39.47
2022-08-04T09:53:28.028Z,39.65
2022-08-04T09:54:30.404Z,39.99
2022-08-04T09:55:28.011Z,40.38
2022-08-04T09:56:28.002Z,40.25
2022-08-04T09:57:27.995Z,40.11
2022-08-04T09:58:27.987Z,40.31
2022-08-04T09:59:28.003Z,40.44
2022-08-04T10:00:40.835Z,40.39
2022-08-04T10:01:28.988Z,40.41
2022-08-04T10:02:27.949Z,40.41
2022-08-04T10:03:28.006Z,40.39
2022-08-04T10:04:27.936Z,40.58
2022-08-04T10:05:27.918Z,40.39
2022-08-04T10:06:27.927Z,39.32
2022-08-04T10:07:27.905Z,38.92
2022-08-04T10:08:27.900Z,38.55
2022-08-04T10:09:27.988Z,38.71
2022-08-04T10:10:27.880Z,38.95
2022-08-04T10:11:27.903Z,39.56
2022-08-04T10:12:27.901Z,39.81
2022-08-04T10:13:27.881Z,39.69
2022-08-04T10:14:27.853Z,39.87
2022-08-04T10:15:27.834Z,40.02
2022-08-04T10:16:27.826Z,40.34
2022-08-04T10:17:27.812Z,40.33
2022-08-04T10:18:27.810Z,40.25
2022-08-04T10:19:27.809Z,40.33
2022-08-04T10:20:44.719Z,40.67
2022-08-04T10:21:29.123Z,40.07
2022-08-04T10:22:29.778Z,40.39
2022-08-04T10:23:27.912Z,40.29
2022-08-04T10:24:27.818Z,40.24
2022-08-04T10:25:37.347Z,40.38
2022-08-04T10:26:27.755Z,40.80
2022-08-04T10:27:27.731Z,41.01
2022-08-04T10:28:27.737Z,41.10
2022-08-04T10:29:27.722Z,40.90
2022-08-04T10:30:27.714Z,41.04
2022-08-04T10:31:27.704Z,40.97
2022-08-04T10:32:27.703Z,40.92
2022-08-04T10:33:27.680Z,41.17
2022-08-04T10:34:27.689Z,41.28
2022-08-04T10:35:27.669Z,40.72
2022-08-04T10:36:27.666Z,40.60
2022-08-04T10:38:00.364Z,40.73
2022-08-04T10:38:28.781Z,40.88
2022-08-04T10:39:43.147Z,40.82
2022-08-04T10:40:27.624Z,40.90
2022-08-04T10:41:27.648Z,41.17
2022-08-04T10:42:27.770Z,41.51
2022-08-04T10:43:27.792Z,41.76
2022-08-04T10:44:27.686Z,41.88
2022-08-04T10:45:27.896Z,41.86
2022-08-04T10:46:27.709Z,42.09
2022-08-04T10:47:27.640Z,42.41
2022-08-04T10:48:35.025Z,42.31
2022-08-04T10:49:28.845Z,42.26
2022-08-04T10:50:27.627Z,42.04
2022-08-04T10:51:27.644Z,41.44
2022-08-04T10:52:27.737Z,40.90
2022-08-04T10:53:27.745Z,40.90
2022-08-04T10:54:27.676Z,41.12
2022-08-04T10:56:07.679Z,41.25
2022-08-04T10:56:27.665Z,41.66
2022-08-04T10:57:27.760Z,41.23
2022-08-04T10:58:47.907Z,41.62
2022-08-04T10:59:27.767Z,41.70
2022-08-04T11:00:27.930Z,41.92
2022-08-04T11:01:59.545Z,42.08
2022-08-04T11:02:28.687Z,42.36
2022-08-04T11:03:27.792Z,42.29
2022-08-04T11:04:28.111Z,42.27
2022-08-04T11:05:27.594Z,42.67
2022-08-04T11:06:27.450Z,42.91
2022-08-04T11:07:27.444Z,43.10
2022-08-04T11:08:27.520Z,42.70
2022-08-04T11:09:27.431Z,43.14
2022-08-04T11:10:27.611Z,43.56
2022-08-04T11:11:28.015Z,43.68
2022-08-04T11:12:27.416Z,43.06
2022-08-04T11:13:29.829Z,42.54
2022-08-04T11:14:27.442Z,42.76
2022-08-04T11:15:27.515Z,42.98
2022-08-04T11:16:27.461Z,43.06
2022-08-04T11:17:27.418Z,43.33
2022-08-04T11:18:27.520Z,43.33
2022-08-04T11:19:42.631Z,43.63
2022-08-04T11:20:36.532Z,43.57
2022-08-04T11:21:28.510Z,43.24
2022-08-04T11:22:27.464Z,43.02
2022-08-04T11:23:27.456Z,43.33
2022-08-04T11:24:27.436Z,43.70
2022-08-04T11:25:27.267Z,43.90
2022-08-04T11:26:27.278Z,44.27
2022-08-04T11:27:27.252Z,44.37
2022-08-04T11:28:30.387Z,44.51
2022-08-04T11:29:27.254Z,44.67
2022-08-04T11:30:27.261Z,44.69
2022-08-04T11:31:27.219Z,44.43
2022-08-04T11:32:27.256Z,44.40
2022-08-04T11:33:27.281Z,44.62
2022-08-04T11:34:27.405Z,44.69
2022-08-04T11:35:27.440Z,44.78
2022-08-04T11:36:27.403Z,44.78
2022-08-04T11:37:27.473Z,44.98
2022-08-04T11:38:32.097Z,44.74
2022-08-04T11:39:27.274Z,44.49
2022-08-04T11:40:27.204Z,44.66
2022-08-04T11:41:27.194Z,45.03
2022-08-04T11:42:27.198Z,45.20
2022-08-04T11:44:01.627Z,45.42
2022-08-04T11:44:28.157Z,44.70
2022-08-04T11:45:27.172Z,44.67
2022-08-04T11:46:27.122Z,44.59
2022-08-04T11:47:30.317Z,44.61
2022-08-04T11:48:27.339Z,44.35
2022-08-04T11:49:27.076Z,44.37
2022-08-04T11:50:27.071Z,44.53
2022-08-04T11:51:27.069Z,44.89
2022-08-04T11:52:27.190Z,44.98
2022-08-04T11:53:34.697Z,45.22
2022-08-04T11:54:27.104Z,45.53
2022-08-04T11:55:27.073Z,45.39
2022-08-04T11:56:27.669Z,45.58
2022-08-04T11:57:35.608Z,45.57
2022-08-04T11:58:27.017Z,45.27
2022-08-04T11:59:27.226Z,44.79
2022-08-04T12:00:27.249Z,45.10
2022-08-04T12:01:27.005Z,45.01
2022-08-04T12:02:27.484Z,44.00
2022-08-04T12:03:27.042Z,43.93
2022-08-04T12:04:27.205Z,44.27
2022-08-04T12:05:35.711Z,44.62
2022-08-04T12:06:28.319Z,45.00
2022-08-04T12:07:31.386Z,45.38
2022-08-04T12:08:26.895Z,45.70
2022-08-04T12:09:26.970Z,46.11
2022-08-04T12:10:42.228Z,45.88
2022-08-04T12:11:28.215Z,45.98
2022-08-04T12:12:27.319Z,45.89
2022-08-04T12:13:26.867Z,45.37
2022-08-04T12:14:26.868Z,45.50
2022-08-04T12:15:26.928Z,45.73
2022-08-04T12:16:30.454Z,45.92
2022-08-04T12:17:26.986Z,45.89
2022-08-04T12:18:28.048Z,45.91
2022-08-04T12:19:30.924Z,45.95
2022-08-04T12:20:31.995Z,45.44
2022-08-04T12:21:27.871Z,44.20
2022-08-04T12:22:29.824Z,43.74
2022-08-04T12:23:26.880Z,43.13
2022-08-04T12:24:27.007Z,43.01
2022-08-04T12:25:27.176Z,42.61
2022-08-04T12:26:26.765Z,42.46
2022-08-04T12:27:30.554Z,43.05
2022-08-04T12:28:26.712Z,43.22
2022-08-04T12:29:26.703Z,43.79
2022-08-04T12:30:58.173Z,43.84
2022-08-04T12:31:28.165Z,43.81
2022-08-04T12:32:26.676Z,43.87
2022-08-04T12:34:03.840Z,44.40
2022-08-04T12:34:29.972Z,44.70
2022-08-04T12:35:26.676Z,44.98
2022-08-04T12:36:26.653Z,45.24
2022-08-04T12:37:26.632Z,44.91
2022-08-04T12:38:26.622Z,44.61
2022-08-04T12:39:26.715Z,44.88
2022-08-04T12:40:29.879Z,44.89
2022-08-04T12:41:26.605Z,44.05
2022-08-04T12:42:26.629Z,43.56
2022-08-04T12:43:26.579Z,43.03
2022-08-04T12:44:36.999Z,42.48
2022-08-04T12:45:26.566Z,42.07
2022-08-04T12:46:26.570Z,42.29
2022-08-04T12:47:36.341Z,42.96
2022-08-04T12:48:27.568Z,43.67
2022-08-04T12:49:26.565Z,43.84
2022-08-04T12:50:26.526Z,43.59
2022-08-04T12:51:31.135Z,43.10
2022-08-04T12:52:51.547Z,42.70
2022-08-04T12:53:32.246Z,42.08
2022-08-04T12:54:28.984Z,41.46
2022-08-04T12:55:26.480Z,41.10
2022-08-04T12:56:26.473Z,41.47
2022-08-04T12:57:26.469Z,42.29
2022-08-04T12:58:42.885Z,42.12
2022-08-04T12:59:26.488Z,42.73